Time;durP1;ratioP1;P1;durP2;ratioP2;P2;SDS_P1;SDS_P2;PMS_P1;PMS_P2;Temp;Humidity;BMP_temperature;BMP_pressure;BME280_temperature;BME280_humidity;BME280_pressure;Samples;Min_cycle;Max_cycle;Signal;HPM_P1;HPM_P2
2023/09/16 00:01:29;;;;;;;10.82;7.93;;;;;;;9.81;73.95;97359.91;6223104;28;20518;-69
2023/09/16 00:04:30;;;;;;;9.75;7.65;;;;;;;9.75;74.04;97352.38;6223063;28;20506;-70
2023/09/16 00:07:37;;;;;;;13.75;8.20;;;;;;;9.74;74.21;97353.31;6223020;28;20501;-70
2023/09/16 00:10:40;;;;;;;12.13;8.43;;;;;;;9.72;74.09;97356.94;6205124;28;20046;-70
2023/09/16 00:13:44;;;;;;;13.90;9.57;;;;;;;9.71;74.25;97364.00;6222445;28;20050;-70
2023/09/16 00:16:46;;;;;;;12.65;9.40;;;;;;;9.65;74.14;97354.66;6222962;28;20127;-70
2023/09/16 00:19:53;;;;;;;12.40;8.75;;;;;;;9.65;73.94;97362.53;6205675;28;20053;-70
2023/09/16 00:22:54;;;;;;;13.00;8.65;;;;;;;9.62;74.12;97364.47;6220673;28;20058;-70
2023/09/16 00:25:56;;;;;;;12.70;9.10;;;;;;;9.55;74.03;97352.59;6204083;28;20056;-70
2023/09/16 00:28:59;;;;;;;14.65;9.10;;;;;;;9.57;74.15;97359.47;6222004;28;20046;-70
2023/09/16 00:32:04;;;;;;;12.80;9.15;;;;;;;9.53;74.12;97364.94;6205408;28;20054;-70
2023/09/16 00:35:06;;;;;;;14.20;9.70;;;;;;;9.50;73.88;97360.72;6180437;28;20142;-70
2023/09/16 00:38:15;;;;;;;13.25;9.25;;;;;;;9.43;74.18;97354.94;6198027;28;20070;-69
2023/09/16 00:41:23;;;;;;;12.80;9.18;;;;;;;9.43;74.32;97354.09;6198040;28;20046;-70
2023/09/16 00:44:30;;;;;;;12.20;8.50;;;;;;;9.39;74.24;97347.28;6198370;28;20050;-70
2023/09/16 00:47:33;;;;;;;11.75;8.38;;;;;;;9.43;74.12;97361.97;6197644;28;20050;-70
2023/09/16 00:50:34;;;;;;;15.05;7.72;;;;;;;9.42;74.34;97358.47;6197335;28;20046;-70
2023/09/16 00:53:41;;;;;;;11.05;8.48;;;;;;;9.41;74.55;97362.03;6196828;28;20054;-70
2023/09/16 00:56:47;;;;;;;14.77;8.05;;;;;;;9.44;74.69;97356.63;6196634;28;20042;-70
2023/09/16 00:59:51;;;;;;;12.88;8.32;;;;;;;9.44;74.74;97359.25;6196947;28;20050;-70
2023/09/16 01:02:54;;;;;;;11.13;7.35;;;;;;;9.39;74.78;97348.13;6197014;28;20145;-70
2023/09/16 01:05:59;;;;;;;9.40;6.65;;;;;;;9.38;74.95;97351.69;6197281;28;20081;-70
2023/09/16 01:09:04;;;;;;;9.30;6.95;;;;;;;9.35;75.09;97356.28;6196693;28;20050;-70
2023/09/16 01:12:11;;;;;;;12.32;6.43;;;;;;;9.33;75.22;97353.72;6197423;28;20046;-70
2023/09/16 01:15:17;;;;;;;8.90;5.95;;;;;;;9.37;75.22;97352.63;6196709;28;20046;-69
2023/09/16 01:18:29;;;;;;;9.60;6.93;;;;;;;9.34;75.63;97352.81;6196285;28;20038;-68
2023/09/16 01:21:33;;;;;;;11.57;6.75;;;;;;;9.36;75.53;97353.53;6197041;28;20124;-69
2023/09/16 01:24:37;;;;;;;10.05;5.93;;;;;;;9.33;75.52;97353.72;6197035;28;20046;-69
2023/09/16 01:27:39;;;;;;;;;;;;;;;9.26;75.80;97346.25;6197154;28;20050;-69
2023/09/16 01:30:48;;;;;;;13.25;7.03;;;;;;;9.25;75.58;97355.03;6196998;28;19922;-69
2023/09/16 01:33:51;;;;;;;9.02;6.70;;;;;;;9.30;75.56;97353.88;6200464;28;20060;-69
2023/09/16 01:37:00;;;;;;;18.23;8.30;;;;;;;9.35;75.51;97351.88;6221243;28;20476;-69
2023/09/16 01:40:12;;;;;;;11.65;7.93;;;;;;;9.42;75.69;97352.38;6220286;28;20127;-69
2023/09/16 01:43:15;;;;;;;13.80;8.38;;;;;;;9.40;75.58;97344.59;6203342;28;20062;-69
2023/09/16 01:46:21;;;;;;;14.77;8.15;;;;;;;9.45;75.76;97357.47;6222186;28;20049;-69
2023/09/16 01:49:24;;;;;;;14.15;8.95;;;;;;;9.40;75.63;97349.00;6222206;28;20038;-69
2023/09/16 01:52:29;;;;;;;;;;;;;;;9.40;76.13;97354.25;6220987;28;20417;-69
2023/09/16 01:55:34;;;;;;;12.20;8.65;;;;;;;9.37;75.68;97355.25;6220523;28;20032;-69
2023/09/16 01:58:36;;;;;;;13.93;8.82;;;;;;;9.42;75.85;97355.00;6219717;28;20056;-69
2023/09/16 02:01:43;;;;;;;;;;;;;;;9.38;76.05;97359.56;6203535;28;20042;-69
2023/09/16 02:04:46;;;;;;;16.73;7.28;;;;;;;9.39;75.51;97353.38;6220664;28;19925;-70
2023/09/16 02:07:47;;;;;;;11.20;7.30;;;;;;;9.39;75.68;97348.13;6220522;28;20030;-70
2023/09/16 02:10:49;;;;;;;13.25;6.68;;;;;;;9.45;75.42;97357.47;6220371;28;20041;-70
2023/09/16 02:13:55;;;;;;;14.52;6.65;;;;;;;9.43;75.06;97354.94;6220345;28;20049;-70
2023/09/16 02:16:57;;;;;;;14.63;7.50;;;;;;;9.43;75.14;97354.94;6202747;28;20113;-69
2023/09/16 02:19:58;;;;;;;12.90;7.15;;;;;;;9.51;75.11;97361.56;6220312;28;20030;-69
2023/09/16 02:23:02;;;;;;;;;;;;;;;9.48;75.14;97356.47;6220492;28;20061;-69
2023/09/16 02:26:23;;;;;;;12.43;6.57;;;;;;;9.52;74.89;97364.09;6202723;28;19949;-69
2023/09/16 02:29:27;;;;;;;12.25;5.97;;;;;;;9.59;74.66;97359.38;6202665;28;20048;-69
2023/09/16 02:32:29;;;;;;;14.75;6.75;;;;;;;9.65;74.68;97359.03;6220016;28;20055;-69
2023/09/16 02:35:33;;;;;;;9.20;6.22;;;;;;;9.71;74.42;97361.38;6219779;28;20148;-69
2023/09/16 02:38:34;;;;;;;12.43;6.75;;;;;;;9.77;74.21;97363.66;6219805;28;20065;-69
2023/09/16 02:41:36;;;;;;;11.18;6.70;;;;;;;9.85;74.19;97363.22;6220096;28;20044;-69
2023/09/16 02:44:43;;;;;;;13.15;6.50;;;;;;;9.89;73.97;97362.97;6222837;28;20413;-69
2023/09/16 02:47:49;;;;;;;11.73;7.07;;;;;;;10.06;73.86;97371.75;6227139;28;20042;-69
2023/09/16 02:50:50;;;;;;;12.77;7.10;;;;;;;10.17;73.78;97365.91;6227516;28;20415;-69
2023/09/16 02:53:55;;;;;;;12.57;7.28;;;;;;;10.25;73.62;97354.00;6226442;28;20042;-69
2023/09/16 02:56:57;;;;;;;12.80;7.28;;;;;;;10.40;73.34;97368.13;6224624;28;20429;-69
2023/09/16 03:00:03;;;;;;;12.05;7.22;;;;;;;10.44;73.09;97363.53;6224769;28;20042;-69
2023/09/16 03:03:12;;;;;;;18.25;7.55;;;;;;;10.55;73.22;97366.38;6223644;28;20141;-69
2023/09/16 03:06:17;;;;;;;14.85;6.93;;;;;;;10.70;73.04;97381.31;6224297;28;20050;-69
2023/09/16 03:09:23;;;;;;;12.40;7.22;;;;;;;10.78;73.08;97373.84;6206362;28;20057;-69
2023/09/16 03:12:26;;;;;;;11.00;6.90;;;;;;;10.94;72.96;97373.78;6223895;28;20425;-69
2023/09/16 03:15:30;;;;;;;11.77;7.00;;;;;;;11.04;72.78;97382.00;6223901;28;20046;-69
2023/09/16 03:18:36;;;;;;;35.58;10.02;;;;;;;11.15;72.92;97384.84;6223783;28;20437;-70
2023/09/16 03:21:39;;;;;;;17.02;8.55;;;;;;;11.24;72.65;97376.41;6224130;28;20176;-70
2023/09/16 03:24:45;;;;;;;14.45;7.32;;;;;;;11.37;72.56;97381.78;6224080;28;20529;-70
2023/09/16 03:27:47;;;;;;;14.15;9.10;;;;;;;11.55;72.67;97389.50;6224089;28;20045;-70
2023/09/16 03:30:53;;;;;;;15.00;7.93;;;;;;;11.69;72.43;97386.88;6223502;28;20426;-70
2023/09/16 03:33:57;;;;;;;17.13;8.18;;;;;;;11.88;72.35;97391.91;6222860;28;20155;-69
2023/09/16 03:37:01;;;;;;;11.98;7.47;;;;;;;12.03;72.15;97388.34;6223785;28;20077;-68
2023/09/16 03:40:05;;;;;;;14.00;6.88;;;;;;;12.18;72.07;97388.31;6223564;28;20509;-70
2023/09/16 03:43:10;;;;;;;12.48;7.43;;;;;;;12.33;72.08;97392.59;6223556;28;20494;-68
2023/09/16 03:46:14;;;;;;;;;;;;;;;12.45;72.19;97386.53;6205832;28;20108;-69
2023/09/16 03:49:18;;;;;;;22.65;13.88;;;;;;;12.62;71.47;97403.09;6223566;28;19921;-69
2023/09/16 03:52:20;;;;;;;14.50;8.27;;;;;;;12.78;71.17;97409.06;6222577;28;20054;-69
2023/09/16 03:55:24;;;;;;;16.70;9.10;;;;;;;12.91;70.77;97415.25;6222796;28;20054;-69
2023/09/16 03:58:26;;;;;;;17.33;9.15;;;;;;;13.09;70.67;97417.63;6222085;28;20488;-69
2023/09/16 04:01:27;;;;;;;22.80;12.10;;;;;;;13.22;70.33;97415.88;6223016;28;20497;-69
2023/09/16 04:04:28;;;;;;;31.40;18.15;;;;;;;13.30;70.24;97421.50;6222961;28;20034;-70
2023/09/16 04:07:37;;;;;;;43.40;21.88;;;;;;;13.43;70.12;97422.38;6223145;28;20045;-69
2023/09/16 04:10:39;;;;;;;50.45;23.55;;;;;;;13.53;69.87;97405.88;6222770;28;20041;-70
2023/09/16 04:13:47;;;;;;;54.45;24.05;;;;;;;13.76;69.15;97428.97;6222966;28;20136;-70
2023/09/16 04:16:49;;;;;;;44.42;22.83;;;;;;;13.87;68.91;97430.84;6222216;28;20139;-70
2023/09/16 04:19:53;;;;;;;41.50;23.50;;;;;;;13.88;68.81;97422.81;6222891;28;20041;-70
2023/09/16 04:22:59;;;;;;;37.30;19.90;;;;;;;13.78;68.40;97400.59;6222356;28;20054;-70
2023/09/16 04:26:03;;;;;;;38.25;19.35;;;;;;;14.13;68.17;97415.81;6222090;28;20680;-69
2023/09/16 04:29:05;;;;;;;36.00;19.25;;;;;;;14.28;67.77;97417.38;6221447;28;20183;-71
2023/09/16 04:32:06;;;;;;;38.45;20.25;;;;;;;14.45;67.28;97425.91;6221983;28;20046;-69
2023/09/16 04:35:07;;;;;;;42.42;20.80;;;;;;;14.53;66.96;97423.59;6222087;28;20050;-70
2023/09/16 04:38:12;;;;;;;;;;;;;;;14.77;66.62;97421.81;6222982;28;20417;-69
2023/09/16 04:41:20;;;;;;;44.97;21.52;;;;;;;14.99;66.04;97425.53;6222118;28;20369;-69
2023/09/16 04:44:23;;;;;;;41.45;23.52;;;;;;;15.17;65.10;97418.88;6204433;28;20052;-70
2023/09/16 04:47:26;;;;;;;49.20;23.90;;;;;;;15.31;64.61;97416.97;6221218;28;20045;-70
2023/09/16 04:50:28;;;;;;;41.53;21.95;;;;;;;15.38;64.22;97410.28;6221335;28;20057;-70
2023/09/16 04:53:33;;;;;;;42.83;22.30;;;;;;;15.52;63.53;97411.88;6221157;28;20050;-70
2023/09/16 04:56:37;;;;;;;43.00;20.90;;;;;;;15.61;63.18;97409.34;6221708;28;20046;-70
2023/09/16 04:59:38;;;;;;;38.05;20.02;;;;;;;15.83;62.39;97415.69;6220960;28;20046;-69
2023/09/16 05:02:47;;;;;;;45.33;22.38;;;;;;;15.86;61.75;97404.84;6220448;28;20072;-69
2023/09/16 05:05:54;;;;;;;34.00;18.38;;;;;;;16.11;61.21;97409.91;6220692;28;20054;-70
2023/09/16 05:08:59;;;;;;;34.25;18.00;;;;;;;16.28;60.97;97410.41;6202796;28;20049;-69
2023/09/16 05:12:02;;;;;;;36.85;18.67;;;;;;;16.46;60.67;97418.72;6220608;28;20864;-70
2023/09/16 05:15:08;;;;;;;32.97;18.52;;;;;;;16.68;59.98;97417.84;6221183;28;20042;-69
2023/09/16 05:18:09;;;;;;;37.75;19.75;;;;;;;16.90;59.31;97423.13;6203010;28;20061;-69
2023/09/16 05:21:14;;;;;;;38.38;19.05;;;;;;;17.16;58.99;97413.00;6202954;28;20483;-69
2023/09/16 05:24:20;;;;;;;28.13;16.40;;;;;;;17.63;57.62;97420.59;6195200;28;20322;-69
2023/09/16 05:27:24;;;;;;;27.95;14.60;;;;;;;21.58;49.94;97422.38;6196257;28;20038;-69
2023/09/16 05:30:28;;;;;;;21.15;11.38;;;;;;;26.79;39.36;97426.09;6195904;28;20042;-68
2023/09/16 05:33:32;;;;;;;16.90;8.75;;;;;;;31.01;32.46;97429.47;6195900;28;20047;-69
2023/09/16 05:36:36;;;;;;;13.25;6.95;;;;;;;33.69;27.76;97433.06;6196494;28;20418;-69
2023/09/16 05:39:40;;;;;;;13.18;6.13;;;;;;;36.30;24.62;97435.81;6196253;28;20038;-69
2023/09/16 05:42:46;;;;;;;11.88;6.32;;;;;;;38.65;21.87;97445.81;6196376;28;20042;-69
2023/09/16 05:45:51;;;;;;;13.77;4.32;;;;;;;40.55;19.55;97437.72;6195859;28;20159;-68
2023/09/16 05:49:06;;;;;;;7.50;3.65;;;;;;;41.83;17.90;97445.47;6196404;28;20034;-69
2023/09/16 05:52:10;;;;;;;7.03;3.13;;;;;;;43.06;17.20;97436.06;6196377;28;20046;-68
2023/09/16 05:55:17;;;;;;;4.97;3.00;;;;;;;43.86;16.25;97451.06;6196291;28;20050;-68
2023/09/16 05:58:23;;;;;;;5.50;2.92;;;;;;;44.82;15.32;97445.00;6196164;28;20046;-69
2023/09/16 06:01:27;;;;;;;14.43;9.93;;;;;;;46.01;14.07;97431.00;6195584;28;20124;-68
2023/09/16 06:04:30;;;;;;;5.47;3.35;;;;;;;46.99;13.51;97432.84;6196116;28;20085;-68
2023/09/16 06:07:39;;;;;;;4.82;2.63;;;;;;;47.82;12.81;97442.41;6195897;28;20510;-68
2023/09/16 06:10:45;;;;;;;5.07;2.05;;;;;;;48.05;12.30;97435.50;6195959;28;20050;-68
2023/09/16 06:13:49;;;;;;;3.83;2.45;;;;;;;48.15;11.85;97439.09;6195805;28;20225;-67
2023/09/16 06:16:51;;;;;;;4.20;2.40;;;;;;;47.31;12.24;97425.25;6195975;28;20041;-67
2023/09/16 06:19:56;;;;;;;3.90;2.25;;;;;;;47.26;12.68;97441.31;6195723;28;20046;-69
2023/09/16 06:23:03;;;;;;;3.53;2.05;;;;;;;47.35;12.02;97419.84;6195790;28;20524;-68
2023/09/16 06:26:07;;;;;;;2.90;1.80;;;;;;;46.49;11.33;97435.09;6195769;28;20039;-70
2023/09/16 06:29:13;;;;;;;3.95;2.33;;;;;;;44.55;12.69;97424.38;6195426;28;20041;-68
2023/09/16 06:32:23;;;;;;;4.47;2.30;;;;;;;44.84;12.47;97431.59;6195628;28;20054;-67
2023/09/16 06:35:26;;;;;;;3.95;2.17;;;;;;;44.75;12.49;97427.91;6195194;28;20058;-69
2023/09/16 06:38:36;;;;;;;4.72;2.90;;;;;;;44.60;12.56;97427.06;6195470;28;20185;-68
2023/09/16 06:41:38;;;;;;;5.65;2.78;;;;;;;45.04;12.59;97419.25;6194906;28;20050;-67
2023/09/16 06:44:42;;;;;;;6.20;3.47;;;;;;;46.63;11.91;97430.25;6195192;28;20061;-68
2023/09/16 06:47:46;;;;;;;5.30;2.88;;;;;;;47.87;10.73;97439.44;6193874;28;20453;-68
2023/09/16 06:50:51;;;;;;;4.38;3.25;;;;;;;47.38;11.13;97433.13;6194806;28;20054;-68
2023/09/16 06:53:56;;;;;;;6.28;3.55;;;;;;;46.85;11.46;97423.78;6194766;28;20050;-68
2023/09/16 06:57:03;;;;;;;7.13;3.20;;;;;;;47.44;11.25;97424.31;6195234;28;20045;-67
2023/09/16 07:00:05;;;;;;;6.97;3.35;;;;;;;48.39;11.22;97422.63;6194847;28;20046;-69
2023/09/16 07:03:08;;;;;;;5.07;2.80;;;;;;;48.40;10.12;97423.44;6194002;28;20055;-69
2023/09/16 07:06:12;;;;;;;4.78;3.05;;;;;;;47.76;10.83;97426.94;6195222;28;20050;-69
2023/09/16 07:09:16;;;;;;;5.32;2.45;;;;;;;47.39;10.82;97420.81;6195219;28;20042;-69
2023/09/16 07:12:17;;;;;;;4.85;1.90;;;;;;;46.93;11.13;97422.19;6194577;28;20046;-68
2023/09/16 07:15:21;;;;;;;2.58;1.50;;;;;;;46.02;11.50;97409.56;6195235;28;20050;-68
2023/09/16 07:18:25;;;;;;;3.92;2.13;;;;;;;45.91;11.61;97415.38;6195068;28;20046;-68
2023/09/16 07:21:32;;;;;;;1.92;1.60;;;;;;;45.88;11.10;97407.66;6194814;28;20046;-68
2023/09/16 07:24:37;;;;;;;2.13;1.63;;;;;;;45.67;11.55;97410.13;6194002;28;20129;-68
2023/09/16 07:27:41;;;;;;;2.65;1.55;;;;;;;45.56;11.25;97402.34;6194858;28;20046;-68
2023/09/16 07:30:47;;;;;;;3.30;3.00;;;;;;;44.81;11.57;97399.72;6194729;28;20038;-68
2023/09/16 07:33:49;;;;;;;3.08;1.52;;;;;;;45.14;11.43;97396.84;6197539;28;20133;-68
2023/09/16 07:36:59;;;;;;;2.00;1.42;;;;;;;45.77;11.35;97397.91;6199312;28;20414;-68
2023/09/16 07:40:03;;;;;;;2.55;1.90;;;;;;;45.86;11.30;97390.47;6199245;28;20046;-68
2023/09/16 07:43:11;;;;;;;2.53;1.70;;;;;;;46.88;11.06;97405.63;6199031;28;20045;-67
2023/09/16 07:46:16;;;;;;;1.40;1.30;;;;;;;46.51;10.58;97394.63;6198445;28;20298;-67
2023/09/16 07:49:19;;;;;;;3.75;2.00;;;;;;;46.48;11.01;97388.91;6199468;28;20038;-68
2023/09/16 07:52:24;;;;;;;1.98;1.35;;;;;;;46.98;10.48;97396.97;6199092;28;20042;-68
2023/09/16 07:55:25;;;;;;;1.50;1.08;;;;;;;46.25;10.44;97386.16;6199075;28;20437;-68
2023/09/16 07:58:27;;;;;;;1.52;1.15;;;;;;;45.40;11.04;97387.94;6198233;28;20054;-67
2023/09/16 08:01:30;;;;;;;2.20;1.30;;;;;;;45.18;11.08;97380.38;6198439;28;20453;-67
2023/09/16 08:04:34;;;;;;;1.60;1.20;;;;;;;45.67;10.56;97371.19;6197550;28;20057;-68
2023/09/16 08:07:36;;;;;;;1.83;1.27;;;;;;;45.83;10.40;97379.16;6198683;28;20383;-68
2023/09/16 08:10:38;;;;;;;2.70;1.70;;;;;;;43.28;11.75;97369.03;6198247;28;20065;-68
2023/09/16 08:13:42;;;;;;;2.35;1.50;;;;;;;43.01;12.38;97377.97;6198607;28;20418;-68
2023/09/16 08:16:43;;;;;;;1.52;1.15;;;;;;;44.12;11.67;97371.06;6198228;28;20057;-68
2023/09/16 08:19:50;;;;;;;3.10;1.33;;;;;;;42.28;12.54;97366.03;6197202;28;20457;-68
2023/09/16 08:22:57;;;;;;;3.22;1.35;;;;;;;39.52;14.36;97353.41;6198430;28;20519;-67
2023/09/16 08:26:05;;;;;;;2.15;1.88;;;;;;;40.48;13.85;97359.97;6198604;28;20507;-67
2023/09/16 08:29:09;;;;;;;2.33;1.27;;;;;;;42.70;12.65;97358.97;6198548;28;20418;-67
2023/09/16 08:32:10;;;;;;;2.55;1.40;;;;;;;43.95;11.84;97355.00;6197527;28;20055;-68
2023/09/16 08:35:17;;;;;;;3.15;1.60;;;;;;;42.11;12.31;97358.19;6197831;28;20058;-68
2023/09/16 08:38:22;;;;;;;2.03;1.52;;;;;;;42.01;12.93;97347.22;6198176;28;20046;-68
2023/09/16 08:41:29;;;;;;;2.00;1.10;;;;;;;44.64;11.78;97351.50;6197526;28;20046;-67
2023/09/16 08:44:37;;;;;;;2.67;1.15;;;;;;;46.47;10.28;97343.56;6196446;28;20065;-67
2023/09/16 08:47:45;;;;;;;2.35;1.35;;;;;;;46.97;10.02;97350.78;6198209;28;20069;-67
2023/09/16 08:50:50;;;;;;;2.42;1.23;;;;;;;47.83;9.18;97341.66;6196704;28;20046;-68
2023/09/16 08:53:58;;;;;;;2.58;1.45;;;;;;;49.22;8.66;97349.47;6197943;28;20050;-68
2023/09/16 08:57:01;;;;;;;2.28;1.50;;;;;;;50.13;8.25;97343.22;6197572;28;20418;-68
2023/09/16 09:00:05;;;;;;;2.08;1.00;;;;;;;50.98;8.02;97345.31;6197426;28;20045;-68
2023/09/16 09:03:09;;;;;;;2.35;1.15;;;;;;;50.98;7.88;97338.88;6197802;28;20121;-68
2023/09/16 09:06:14;;;;;;;1.92;1.20;;;;;;;48.46;9.37;97325.22;6197515;28;20051;-68
2023/09/16 09:09:18;;;;;;;1.58;1.10;;;;;;;43.96;11.59;97311.44;6196707;28;20069;-68
2023/09/16 09:12:22;;;;;;;39.22;31.63;;;;;;;42.96;11.84;97306.06;6197274;28;20046;-68
2023/09/16 09:15:28;;;;;;;4.25;3.20;;;;;;;44.92;10.53;97305.94;6196896;28;20054;-68
2023/09/16 09:18:34;;;;;;;1.83;1.48;;;;;;;47.11;9.12;97300.50;6197121;28;20042;-68
2023/09/16 09:21:43;;;;;;;1.60;0.98;;;;;;;48.58;8.43;97304.16;6197280;28;20042;-68
2023/09/16 09:24:49;;;;;;;1.52;1.30;;;;;;;49.11;8.14;97309.09;6195043;28;20046;-68
2023/09/16 09:27:58;;;;;;;1.00;0.95;;;;;;;46.90;9.59;97317.00;6196932;28;20046;-68
2023/09/16 09:31:06;;;;;;;2.30;1.10;;;;;;;46.51;9.69;97299.19;6196820;28;20517;-68
2023/09/16 09:34:17;;;;;;;1.42;1.33;;;;;;;42.50;11.65;97287.28;6195311;28;20058;-68
2023/09/16 09:37:24;;;;;;;2.78;1.80;;;;;;;37.40;14.93;97274.81;6195509;28;20034;-69
2023/09/16 09:40:28;;;;;;;2.95;1.63;;;;;;;34.07;17.97;97265.28;6196094;28;20101;-69
2023/09/16 09:43:33;;;;;;;4.40;2.40;;;;;;;32.74;19.66;97256.50;6196464;28;20524;-68
2023/09/16 09:46:40;;;;;;;2.40;2.00;;;;;;;31.42;20.14;97265.06;6195833;28;20505;-69
2023/09/16 09:49:42;;;;;;;4.07;1.70;;;;;;;30.33;21.81;97262.38;6194419;28;20201;-69
2023/09/16 09:52:54;;;;;;;3.58;2.20;;;;;;;29.19;23.26;97260.06;6195885;28;20064;-69
2023/09/16 09:55:56;;;;;;;4.50;2.85;;;;;;;29.63;22.40;97261.28;6196459;28;20042;-69
2023/09/16 09:59:01;;;;;;;2.47;2.15;;;;;;;29.07;22.81;97268.78;6196621;28;20548;-69
2023/09/16 10:02:06;;;;;;;3.25;2.35;;;;;;;28.27;23.96;97256.03;6196730;28;20042;-69
2023/09/16 10:05:21;;;;;;;4.53;2.30;;;;;;;27.92;24.44;97261.50;6195037;28;20043;-69
2023/09/16 10:08:27;;;;;;;2.35;2.08;;;;;;;29.97;22.27;97261.00;6196341;28;20417;-69
2023/09/16 10:11:35;;;;;;;2.28;1.77;;;;;;;31.83;20.19;97263.66;6196208;28;20042;-68
2023/09/16 10:14:42;;;;;;;4.50;2.30;;;;;;;30.74;21.82;97258.38;6195732;28;20098;-71
2023/09/16 10:17:49;;;;;;;2.80;1.98;;;;;;;29.20;23.35;97256.28;6195694;28;20042;-70
2023/09/16 10:20:54;;;;;;;2.63;2.08;;;;;;;28.11;24.82;97252.66;6195439;28;20403;-69
2023/09/16 10:23:58;;;;;;;3.97;2.38;;;;;;;27.53;25.73;97249.38;6195787;28;20038;-70
2023/09/16 10:27:09;;;;;;;5.45;2.28;;;;;;;27.23;26.11;97249.56;6195693;28;20457;-69
2023/09/16 10:30:14;;;;;;;3.90;2.65;;;;;;;27.16;26.46;97256.78;6194867;28;20057;-68
2023/09/16 10:33:21;;;;;;;4.05;2.42;;;;;;;26.88;26.65;97249.44;6195387;28;20546;-68
2023/09/16 10:36:25;;;;;;;5.82;2.35;;;;;;;26.57;27.39;97259.69;6195385;28;20410;-70
2023/09/16 10:39:31;;;;;;;5.40;2.65;;;;;;;26.03;28.19;97262.75;6194937;28;20514;-70
2023/09/16 10:42:36;;;;;;;5.00;2.63;;;;;;;25.08;30.55;97253.41;6194971;28;20052;-70
2023/09/16 10:45:41;;;;;;;3.00;2.33;;;;;;;24.28;32.19;97261.84;6195739;28;20042;-69
2023/09/16 10:48:45;;;;;;;5.05;2.45;;;;;;;23.91;33.33;97271.41;6195217;28;20510;-69
2023/09/16 10:51:50;;;;;;;6.35;2.60;;;;;;;23.14;35.02;97273.75;6195619;28;20137;-69
2023/09/16 10:55:02;;;;;;;5.60;2.88;;;;;;;22.18;36.23;97272.41;6195029;28;20050;-69
2023/09/16 10:58:17;;;;;;;2.97;2.28;;;;;;;22.08;35.13;97277.00;6195270;28;20042;-70
2023/09/16 11:01:33;;;;;;;3.22;2.45;;;;;;;21.83;34.86;97274.25;6194789;28;20050;-69
2023/09/16 11:04:37;;;;;;;2.17;1.40;;;;;;;21.43;34.32;97273.03;6194206;28;20105;-70
2023/09/16 11:07:42;;;;;;;2.70;1.35;;;;;;;21.27;33.83;97279.06;6197418;28;20426;-69
2023/09/16 11:10:46;;;;;;;3.30;1.60;;;;;;;21.15;34.26;97279.47;6199516;28;20054;-69
2023/09/16 11:13:51;;;;;;;1.58;1.27;;;;;;;21.12;34.29;97287.78;6199579;28;20077;-70
2023/09/16 11:16:59;;;;;;;2.03;1.20;;;;;;;21.04;34.44;97289.44;6199994;28;20050;-70
2023/09/16 11:20:21;;;;;;;2.65;1.60;;;;;;;21.16;34.36;97307.91;6199701;28;20048;-70
2023/09/16 11:23:30;;;;;;;8.57;4.55;;;;;;;21.41;34.83;97304.44;6199860;28;20429;-68
2023/09/16 11:26:38;;;;;;;7.03;2.85;;;;;;;21.62;34.86;97287.19;6199232;28;20046;-68
2023/09/16 11:29:50;;;;;;;4.05;2.22;;;;;;;21.88;35.11;97290.69;6199705;28;20425;-68
2023/09/16 11:32:55;;;;;;;3.95;2.55;;;;;;;22.11;35.22;97287.44;6199015;28;20054;-68
2023/09/16 11:36:08;;;;;;;5.03;2.58;;;;;;;22.58;34.51;97278.88;6198631;28;20576;-68
2023/09/16 11:39:15;;;;;;;2.45;1.83;;;;;;;23.18;33.81;97280.44;6198379;28;20321;-68
2023/09/16 11:42:19;;;;;;;6.50;2.88;;;;;;;23.88;32.78;97271.78;6199315;28;20416;-68
2023/09/16 11:45:22;;;;;;;11.05;2.95;;;;;;;24.91;31.24;97270.72;6199180;28;20097;-68
2023/09/16 11:48:46;;;;;;;8.00;2.33;;;;;;;25.76;29.81;97267.78;6199018;28;20046;-68
2023/09/16 11:51:51;;;;;;;4.85;2.25;;;;;;;26.18;29.36;97250.09;6198433;28;20046;-68
2023/09/16 11:55:00;;;;;;;50.58;29.20;;;;;;;26.57;28.97;97251.59;6199283;28;20038;-70
2023/09/16 11:58:06;;;;;;;9.05;6.72;;;;;;;27.82;27.74;97259.13;6199016;28;20046;-69
2023/09/16 12:01:20;;;;;;;8.75;4.13;;;;;;;29.52;24.96;97260.84;6198920;28;20505;-70
2023/09/16 12:04:26;;;;;;;5.97;4.05;;;;;;;30.50;22.66;97256.44;6198764;28;20128;-70
2023/09/16 12:07:30;;;;;;;6.45;2.97;;;;;;;30.92;22.05;97254.16;6199670;28;20049;-68
2023/09/16 12:10:37;;;;;;;4.50;2.03;;;;;;;31.52;21.50;97254.53;6199776;28;20054;-68
2023/09/16 12:13:41;;;;;;;5.38;4.10;;;;;;;31.59;21.19;97249.00;6199266;28;20042;-69
2023/09/16 12:16:43;;;;;;;3.78;1.90;;;;;;;30.64;22.39;97242.56;6199436;28;20054;-69
2023/09/16 12:19:51;;;;;;;4.10;2.40;;;;;;;29.49;22.99;97245.00;6197794;28;20085;-70
2023/09/16 12:22:55;;;;;;;5.20;3.25;;;;;;;29.57;23.03;97246.66;6198623;28;20050;-69
2023/09/16 12:25:58;;;;;;;;;;;;;;;30.12;22.68;97249.06;6199156;28;20188;-69
2023/09/16 12:29:00;;;;;;;3.07;1.70;;;;;;;30.17;22.01;97239.22;6197978;28;20072;-69
2023/09/16 12:32:12;;;;;;;3.50;1.60;;;;;;;29.75;22.20;97243.31;6198133;28;20043;-70
2023/09/16 12:35:16;;;;;;;5.97;1.90;;;;;;;29.20;22.47;97246.28;6198050;28;20053;-70
2023/09/16 12:38:20;;;;;;;3.53;2.03;;;;;;;28.28;23.44;97234.19;6197878;28;20575;-68
2023/09/16 12:41:23;;;;;;;14.93;9.05;;;;;;;27.26;24.26;97248.31;6197864;28;20093;-68
2023/09/16 12:44:34;;;;;;;19.33;12.63;;;;;;;26.28;25.50;97239.00;6197770;28;20050;-68
2023/09/16 12:47:37;;;;;;;7.47;3.55;;;;;;;25.84;25.74;97237.19;6196058;28;20057;-68
2023/09/16 12:50:41;;;;;;;18.98;13.05;;;;;;;25.71;25.95;97237.84;6197593;28;20576;-69
2023/09/16 12:53:43;;;;;;;6.00;3.03;;;;;;;25.49;25.51;97235.03;6197785;28;20430;-68
2023/09/16 12:56:49;;;;;;;4.70;2.30;;;;;;;25.14;26.26;97244.66;6196990;28;20541;-69
2023/09/16 13:00:03;;;;;;;6.10;2.38;;;;;;;24.91;26.47;97230.34;6197708;28;20050;-68
2023/09/16 13:03:10;;;;;;;4.15;2.33;;;;;;;24.83;27.08;97234.78;6196235;28;20186;-68
2023/09/16 13:06:13;;;;;;;9.38;2.58;;;;;;;24.54;27.79;97240.88;6195724;28;20050;-70
2023/09/16 13:09:17;;;;;;;9.77;3.67;;;;;;;24.04;28.37;97233.25;6197395;28;20050;-70
2023/09/16 13:12:18;;;;;;;10.25;5.85;;;;;;;23.69;29.97;97235.34;6197182;28;20039;-70
2023/09/16 13:15:24;;;;;;;8.98;4.60;;;;;;;23.47;29.93;97247.69;6197167;28;20046;-70
2023/09/16 13:18:28;;;;;;;16.63;7.55;;;;;;;23.11;29.92;97248.06;6197034;28;20042;-68
2023/09/16 13:21:34;;;;;;;10.70;4.95;;;;;;;22.67;30.50;97239.47;6196938;28;20042;-70
2023/09/16 13:24:43;;;;;;;6.40;3.60;;;;;;;22.42;31.16;97248.34;6196700;28;20054;-69
2023/09/16 13:27:45;;;;;;;7.18;2.78;;;;;;;22.19;31.62;97247.25;6196416;28;20057;-69
2023/09/16 13:30:56;;;;;;;24.17;14.60;;;;;;;21.98;32.14;97248.50;6195890;28;20056;-69
2023/09/16 13:34:00;;;;;;;7.53;4.13;;;;;;;21.72;33.18;97251.25;6207425;28;20053;-69
2023/09/16 13:37:03;;;;;;;6.80;3.40;;;;;;;21.47;34.03;97252.94;6216834;28;20132;-70
2023/09/16 13:40:09;;;;;;;7.78;3.88;;;;;;;21.22;34.80;97259.13;6201148;28;20042;-70
2023/09/16 13:43:13;;;;;;;8.50;4.15;;;;;;;20.95;35.61;97258.25;6218397;28;20533;-69
2023/09/16 13:46:15;;;;;;;17.40;8.65;;;;;;;20.71;37.02;97255.38;6219379;28;20069;-69
2023/09/16 13:49:17;;;;;;;8.35;4.28;;;;;;;20.43;37.69;97258.06;6218282;28;20096;-69
2023/09/16 13:52:18;;;;;;;9.52;4.30;;;;;;;20.15;38.76;97244.75;6219733;28;20042;-70
2023/09/16 13:55:19;;;;;;;11.65;4.63;;;;;;;19.92;39.13;97249.66;6219995;28;20044;-70
2023/09/16 13:58:24;;;;;;;19.90;7.55;;;;;;;19.70;40.52;97253.59;6219546;28;20042;-68
2023/09/16 14:01:29;;;;;;;12.95;5.72;;;;;;;19.47;40.92;97249.56;6219386;28;20037;-69
2023/09/16 14:04:31;;;;;;;18.27;8.27;;;;;;;19.24;41.66;97249.91;6202127;28;20394;-68
2023/09/16 14:07:33;;;;;;;16.05;6.95;;;;;;;19.05;42.31;97255.28;6219443;28;20038;-69
2023/09/16 14:10:34;;;;;;;14.88;6.70;;;;;;;18.83;42.86;97259.13;6219318;28;20038;-68
2023/09/16 14:13:38;;;;;;;21.58;7.78;;;;;;;18.70;43.51;97269.19;6219003;28;20065;-68
2023/09/16 14:16:40;;;;;;;16.70;8.68;;;;;;;18.52;43.70;97263.72;6218447;28;20046;-70
2023/09/16 14:19:42;;;;;;;13.70;8.88;;;;;;;18.42;43.77;97260.19;6218327;28;20053;-68
2023/09/16 14:22:44;;;;;;;19.92;10.75;;;;;;;18.26;44.57;97266.91;6218868;28;20789;-69
2023/09/16 14:25:46;;;;;;;18.53;8.10;;;;;;;18.15;44.55;97277.69;6219312;28;20054;-68
2023/09/16 14:28:49;;;;;;;16.35;8.05;;;;;;;18.02;45.37;97282.41;6219335;28;20042;-70